Ana Sayfa
METAR-TAF:

METAR-TAF

Havaalanları :

Mount Pleasant Municipal Airport

Mount Pleasant, Michigan, Amerika Birleşik Devletleri

Enlem: 43-37N, Boylam: 084-44W, yükseklik: 230 m

Güncel hava durumu gözlemi

Rapor saat 02:57 UTC de 15 dakika önce yapıldı.
Rüzgar doğu/kuzeydoğudan 3 kt
Sıcaklık 21°C
Nem 78%
Basınç 1014 hPa
Görüş mesafesi: 16.1 km
Açık gökyüzü

METAR: KMOP 180257Z AUTO 06003KT 10SM CLR 21/17 A2995 RMK AO2 T02100170

Saat: 23:12 (03:12 UTC)


TAF: eksik

4.000'den fazla havaalanı için hava durumu gözlemleri ve tahminleri (METAR ve TAF raporları).

Kullanılabilir istasyonlar harita üzerinde sarı ve kırmızı noktalarla gösterilir.

İstasyonun adını görmek için fareyi noktanın üzerinde gezdirin.

Sonrasında hava gözlem ve tahminlerini görmek için tıklayın.

Haritayı değiştirmek için: yaklaştırmak için siyah artı işaretli yeşil düğmeye ve uzaklaştırmak için de eksi işaretli düğmeye hızla tıklayın; bitişik haritalar için yeşil okları kullanın.


METAR-TAF: